createdAt,value
2019-03-20T00:00:40.500Z,102824.00
2019-03-20T00:03:10.018Z,102830.00
2019-03-20T00:05:39.567Z,102833.00
2019-03-20T00:08:09.094Z,102826.00
2019-03-20T00:10:38.702Z,102835.00
2019-03-20T00:13:08.430Z,102832.00
2019-03-20T00:15:37.881Z,102830.00
2019-03-20T00:18:07.534Z,102836.00
2019-03-20T00:20:37.084Z,102840.00
2019-03-20T00:23:06.616Z,102840.00
2019-03-20T00:25:36.067Z,102840.00
2019-03-20T00:28:05.676Z,102843.00
2019-03-20T00:30:35.205Z,102843.00
2019-03-20T00:33:04.786Z,102839.00
2019-03-20T00:35:34.267Z,102854.00
2019-03-20T00:38:03.889Z,102852.00
2019-03-20T00:40:33.313Z,102850.00
2019-03-20T00:43:02.752Z,102852.00
2019-03-20T00:45:32.187Z,102856.00
2019-03-20T00:48:01.780Z,102854.00
2019-03-20T00:50:31.204Z,102848.00
2019-03-20T00:53:00.679Z,102856.00
2019-03-20T00:55:30.181Z,102846.00
2019-03-20T00:57:59.707Z,102846.00
2019-03-20T01:00:29.315Z,102853.00
2019-03-20T01:02:58.756Z,102848.00
2019-03-20T01:05:28.271Z,102840.00
2019-03-20T01:07:57.804Z,102840.00
2019-03-20T01:10:27.452Z,102837.00
2019-03-20T01:12:56.962Z,102843.00
2019-03-20T01:15:26.480Z,102844.00
2019-03-20T01:17:55.921Z,102844.00
2019-03-20T01:20:25.770Z,102843.00
2019-03-20T01:22:55.353Z,102849.00
2019-03-20T01:25:25.152Z,102847.00
2019-03-20T01:27:54.606Z,102853.00
2019-03-20T01:30:37.979Z,102864.00
2019-03-20T01:33:13.767Z,102861.00
2019-03-20T01:35:43.305Z,102861.00
2019-03-20T01:38:12.914Z,102862.00
2019-03-20T01:40:42.360Z,102868.00
2019-03-20T01:43:11.981Z,102865.00
2019-03-20T01:45:41.557Z,102872.00
2019-03-20T01:48:10.982Z,102866.00
2019-03-20T01:50:40.518Z,102862.00
2019-03-20T01:53:10.037Z,102859.00
2019-03-20T01:55:39.540Z,102863.00
2019-03-20T01:58:09.046Z,102855.00
2019-03-20T02:00:38.835Z,102847.00
2019-03-20T02:03:08.366Z,102849.00
2019-03-20T02:05:37.827Z,102847.00
2019-03-20T02:08:07.437Z,102846.00
2019-03-20T02:10:36.892Z,102848.00
2019-03-20T02:13:06.462Z,102851.00
2019-03-20T02:15:39.215Z,102858.00
2019-03-20T02:18:07.145Z,102848.00
2019-03-20T02:20:36.645Z,102847.00
2019-03-20T02:23:06.255Z,102832.00
2019-03-20T02:25:35.862Z,102839.00
2019-03-20T02:28:05.488Z,102845.00
2019-03-20T02:30:34.948Z,102836.00
2019-03-20T02:33:04.581Z,102824.00
2019-03-20T02:35:33.999Z,102825.00
2019-03-20T02:38:03.449Z,102832.00
2019-03-20T02:40:32.976Z,102836.00
2019-03-20T02:43:02.523Z,102833.00
2019-03-20T02:45:31.986Z,102826.00
2019-03-20T02:48:01.413Z,102831.00
2019-03-20T02:50:30.920Z,102832.00
2019-03-20T02:53:00.380Z,102835.00
2019-03-20T02:55:29.812Z,102837.00
2019-03-20T02:57:59.288Z,102826.00
2019-03-20T03:00:28.986Z,102819.00
2019-03-20T03:02:58.449Z,102817.00
2019-03-20T03:05:28.019Z,102816.00
2019-03-20T03:07:57.428Z,102822.00
2019-03-20T03:10:26.899Z,102811.00
2019-03-20T03:12:56.513Z,102819.00
2019-03-20T03:15:26.211Z,102821.00
2019-03-20T03:17:55.774Z,102817.00
2019-03-20T03:20:25.255Z,102816.00
2019-03-20T03:22:54.711Z,102820.00
2019-03-20T03:25:24.161Z,102824.00
2019-03-20T03:27:53.730Z,102825.00
2019-03-20T03:30:23.009Z,102840.00
2019-03-20T03:32:52.456Z,102834.00
2019-03-20T03:35:21.924Z,102837.00
2019-03-20T03:37:51.382Z,102846.00
2019-03-20T03:40:21.692Z,102835.00
2019-03-20T03:42:51.169Z,102841.00
2019-03-20T03:45:20.629Z,102832.00
2019-03-20T03:47:50.187Z,102835.00
2019-03-20T03:50:19.677Z,102840.00
2019-03-20T03:52:49.180Z,102840.00
2019-03-20T03:55:18.696Z,102844.00
2019-03-20T03:57:48.373Z,102841.00
2019-03-20T04:00:20.495Z,102843.00
2019-03-20T04:02:49.920Z,102844.00
2019-03-20T04:05:19.531Z,102845.00
2019-03-20T04:07:48.998Z,102843.00
2019-03-20T04:10:19.272Z,102844.00
2019-03-20T04:12:51.351Z,102848.00
2019-03-20T04:15:20.939Z,102845.00
2019-03-20T04:17:52.773Z,102847.00
2019-03-20T04:20:22.389Z,102835.00
2019-03-20T04:22:51.919Z,102843.00
2019-03-20T04:25:21.518Z,102835.00
2019-03-20T04:27:50.955Z,102835.00
2019-03-20T04:30:20.711Z,102826.00
2019-03-20T04:32:50.245Z,102840.00
2019-03-20T04:35:19.722Z,102839.00
2019-03-20T04:37:49.289Z,102834.00
2019-03-20T04:40:19.495Z,102830.00
2019-03-20T04:42:50.609Z,102833.00
2019-03-20T04:45:20.097Z,102831.00
2019-03-20T04:47:49.505Z,102840.00
2019-03-20T04:50:18.941Z,102833.00
2019-03-20T04:52:48.492Z,102831.00
2019-03-20T04:55:17.946Z,102836.00
2019-03-20T04:57:47.472Z,102832.00
2019-03-20T05:00:19.459Z,102834.00
2019-03-20T05:02:48.999Z,102833.00
2019-03-20T05:05:18.570Z,102837.00
2019-03-20T05:07:48.086Z,102841.00
2019-03-20T05:10:21.453Z,102837.00
2019-03-20T05:12:50.981Z,102834.00
2019-03-20T05:15:20.513Z,102838.00
2019-03-20T05:17:50.007Z,102836.00
2019-03-20T05:20:21.118Z,102855.00
2019-03-20T05:22:50.678Z,102844.00
2019-03-20T05:25:20.082Z,102847.00
2019-03-20T05:27:49.544Z,102842.00
2019-03-20T05:30:19.761Z,102845.00
2019-03-20T05:32:49.177Z,102854.00
2019-03-20T05:35:18.607Z,102861.00
2019-03-20T05:37:48.121Z,102865.00
2019-03-20T05:40:19.645Z,102870.00
2019-03-20T05:42:49.093Z,102870.00
2019-03-20T05:45:20.254Z,102869.00
2019-03-20T05:47:49.750Z,102875.00
2019-03-20T05:50:19.625Z,102884.00
2019-03-20T05:52:49.101Z,102878.00
2019-03-20T05:55:18.639Z,102882.00
2019-03-20T05:57:48.076Z,102888.00
2019-03-20T06:00:21.181Z,102897.00
2019-03-20T06:02:50.836Z,102890.00
2019-03-20T06:05:20.436Z,102900.00
2019-03-20T06:07:49.889Z,102905.00
2019-03-20T06:10:19.839Z,102898.00
2019-03-20T06:12:49.271Z,102903.00
2019-03-20T06:15:18.773Z,102902.00
2019-03-20T06:17:48.229Z,102903.00
2019-03-20T06:20:17.678Z,102904.00
2019-03-20T06:22:47.204Z,102905.00
2019-03-20T06:25:20.927Z,102901.00
2019-03-20T06:27:48.413Z,102909.00
2019-03-20T06:30:22.151Z,102917.00
2019-03-20T06:32:51.670Z,102913.00
2019-03-20T06:35:21.227Z,102909.00
2019-03-20T06:37:50.670Z,102921.00
2019-03-20T06:40:20.159Z,102916.00
2019-03-20T06:42:49.749Z,102918.00
2019-03-20T06:45:20.790Z,102919.00
2019-03-20T06:47:50.236Z,102926.00
2019-03-20T06:50:23.682Z,102924.00
2019-03-20T06:52:53.260Z,102931.00
2019-03-20T06:55:22.772Z,102932.00
2019-03-20T06:57:52.339Z,102922.00
2019-03-20T07:00:47.439Z,102919.00
2019-03-20T07:03:42.405Z,102930.00
2019-03-20T07:06:33.823Z,102925.00
2019-03-20T07:09:07.872Z,102926.00
2019-03-20T07:11:40.549Z,102922.00
2019-03-20T07:14:10.041Z,102931.00
2019-03-20T07:16:39.535Z,102935.00
2019-03-20T07:19:09.127Z,102926.00
2019-03-20T07:21:41.576Z,102929.00
2019-03-20T07:24:11.028Z,102924.00
2019-03-20T07:26:40.501Z,102923.00
2019-03-20T07:29:09.951Z,102916.00
2019-03-20T07:31:39.451Z,102928.00
2019-03-20T07:34:09.072Z,102931.00
2019-03-20T07:36:38.544Z,102927.00
2019-03-20T07:39:11.018Z,102940.00
2019-03-20T07:41:40.439Z,102939.00
2019-03-20T07:44:10.100Z,102937.00
2019-03-20T07:46:39.743Z,102949.00
2019-03-20T07:49:09.415Z,102949.00
2019-03-20T07:51:38.998Z,102946.00
2019-03-20T07:54:08.442Z,102940.00
2019-03-20T07:56:37.890Z,102945.00
2019-03-20T07:59:07.357Z,102945.00
2019-03-20T08:01:36.780Z,102948.00
2019-03-20T08:04:06.244Z,102950.00
2019-03-20T08:06:35.741Z,102962.00
2019-03-20T08:09:07.636Z,102952.00
2019-03-20T08:11:37.075Z,102950.00
2019-03-20T08:14:06.749Z,102947.00
2019-03-20T08:16:36.205Z,102951.00
2019-03-20T08:19:05.778Z,102964.00
2019-03-20T08:21:35.274Z,102964.00
2019-03-20T08:24:04.890Z,102959.00
2019-03-20T08:26:34.339Z,102962.00
2019-03-20T08:29:03.885Z,102965.00
2019-03-20T08:31:33.440Z,102964.00
2019-03-20T08:34:02.941Z,102970.00
2019-03-20T08:36:32.390Z,102967.00
2019-03-20T08:39:01.882Z,102970.00
2019-03-20T08:41:31.407Z,102976.00
2019-03-20T08:44:00.897Z,102977.00
2019-03-20T08:46:30.441Z,102974.00
2019-03-20T08:48:59.895Z,102975.00
2019-03-20T08:51:29.367Z,102977.00
2019-03-20T08:53:58.870Z,102976.00
2019-03-20T08:56:28.324Z,102990.00
2019-03-20T08:58:57.815Z,102990.00
2019-03-20T09:01:28.943Z,102993.00
2019-03-20T09:03:58.508Z,102988.00
2019-03-20T09:06:28.034Z,103003.00
2019-03-20T09:08:57.524Z,102996.00
2019-03-20T09:11:27.001Z,102990.00
2019-03-20T09:13:56.446Z,102998.00
2019-03-20T09:16:25.926Z,103000.00
2019-03-20T09:18:55.379Z,102997.00
2019-03-20T09:21:24.852Z,103000.00
2019-03-20T09:23:54.344Z,103000.00
2019-03-20T09:26:23.870Z,102995.00
2019-03-20T09:28:53.632Z,102992.00
2019-03-20T09:31:23.153Z,103000.00
2019-03-20T09:33:52.721Z,102990.00
2019-03-20T09:36:22.195Z,102985.00
2019-03-20T09:38:51.776Z,102991.00
2019-03-20T09:41:21.243Z,102986.00
2019-03-20T09:43:50.806Z,102990.00
2019-03-20T09:46:20.243Z,102988.00
2019-03-20T09:48:49.700Z,102992.00
2019-03-20T09:51:19.281Z,102987.00
2019-03-20T09:53:48.739Z,102986.00
2019-03-20T09:56:18.204Z,102987.00
2019-03-20T09:58:47.708Z,102990.00
2019-03-20T10:01:17.178Z,102993.00
2019-03-20T10:03:46.691Z,102992.00
2019-03-20T10:06:16.250Z,102997.00
2019-03-20T10:08:53.798Z,102993.00
2019-03-20T10:11:16.919Z,102995.00
2019-03-20T10:13:46.457Z,102990.00
2019-03-20T10:16:15.924Z,102998.00
2019-03-20T10:18:45.403Z,102996.00
2019-03-20T10:21:14.897Z,103005.00
2019-03-20T10:23:44.378Z,102996.00
2019-03-20T10:26:13.910Z,102998.00
2019-03-20T10:28:43.465Z,103000.00
2019-03-20T10:31:12.933Z,103006.00
2019-03-20T10:33:42.384Z,103010.00
2019-03-20T10:36:11.872Z,103007.00
2019-03-20T10:38:41.356Z,103014.00
2019-03-20T10:41:10.894Z,103010.00
2019-03-20T10:43:40.412Z,102996.00
2019-03-20T10:46:09.883Z,103003.00
2019-03-20T10:48:39.355Z,103002.00
2019-03-20T10:51:08.834Z,103000.00
2019-03-20T10:53:38.319Z,103001.00
2019-03-20T10:56:07.799Z,102998.00
2019-03-20T10:58:37.270Z,103000.00
2019-03-20T11:01:06.937Z,103017.00
2019-03-20T11:03:36.456Z,103010.00
2019-03-20T11:06:05.958Z,103005.00
2019-03-20T11:08:35.435Z,103005.00
2019-03-20T11:11:05.047Z,103005.00
2019-03-20T11:13:34.637Z,103002.00
2019-03-20T11:16:04.136Z,103004.00
2019-03-20T11:18:33.667Z,102999.00
2019-03-20T11:21:03.240Z,103000.00
2019-03-20T11:23:32.746Z,103009.00
2019-03-20T11:26:02.225Z,102999.00
2019-03-20T11:28:31.709Z,103000.00
2019-03-20T11:31:01.232Z,103006.00
2019-03-20T11:33:30.685Z,103006.00
2019-03-20T11:36:00.173Z,102990.00
2019-03-20T11:38:29.708Z,103009.00
2019-03-20T11:40:59.188Z,103007.00
2019-03-20T11:43:28.645Z,103005.00
2019-03-20T11:45:58.210Z,103008.00
2019-03-20T11:48:27.677Z,103006.00
2019-03-20T11:50:57.120Z,103001.00
2019-03-20T11:53:26.619Z,103012.00
2019-03-20T11:55:57.056Z,103014.00
2019-03-20T11:58:26.672Z,103006.00
2019-03-20T12:00:56.211Z,102998.00
2019-03-20T12:03:25.789Z,103000.00
2019-03-20T12:05:55.285Z,103002.00
2019-03-20T12:08:24.868Z,103004.00
2019-03-20T12:10:54.210Z,103013.00
2019-03-20T12:13:23.784Z,103005.00
2019-03-20T12:15:53.241Z,103015.00
2019-03-20T12:18:22.681Z,103006.00
2019-03-20T12:20:52.204Z,103002.00
2019-03-20T12:23:21.636Z,103007.00
2019-03-20T12:25:51.103Z,103010.00
2019-03-20T12:28:20.666Z,103004.00
2019-03-20T12:30:50.091Z,103011.00
2019-03-20T12:33:19.558Z,103011.00
2019-03-20T12:35:49.162Z,103010.00
2019-03-20T12:38:18.707Z,103011.00
2019-03-20T12:40:48.271Z,103007.00
2019-03-20T12:43:17.716Z,103005.00
2019-03-20T12:45:47.170Z,103009.00
2019-03-20T12:48:18.958Z,103014.00
2019-03-20T12:50:48.452Z,103006.00
2019-03-20T12:53:31.124Z,103011.00
2019-03-20T12:56:00.658Z,103001.00
2019-03-20T12:58:30.187Z,103008.00
2019-03-20T13:00:59.818Z,103004.00
2019-03-20T13:03:30.745Z,103009.00
2019-03-20T13:06:00.441Z,103011.00
2019-03-20T13:08:29.914Z,103011.00
2019-03-20T13:10:59.374Z,103004.00
2019-03-20T13:13:28.891Z,103011.00
2019-03-20T13:15:58.354Z,103003.00
2019-03-20T13:18:27.821Z,103009.00
2019-03-20T13:20:57.613Z,103008.00
2019-03-20T13:23:38.120Z,103012.00
2019-03-20T13:26:07.764Z,103006.00
2019-03-20T13:28:37.210Z,103008.00
2019-03-20T13:31:11.719Z,102994.00
2019-03-20T13:33:41.187Z,102990.00
2019-03-20T13:36:10.721Z,102996.00
2019-03-20T13:38:40.160Z,103007.00
2019-03-20T13:41:09.631Z,102999.00
2019-03-20T13:43:39.118Z,102992.00
2019-03-20T13:46:08.662Z,102992.00
2019-03-20T13:48:38.205Z,102995.00
2019-03-20T13:51:07.676Z,102987.00
2019-03-20T13:53:37.137Z,102999.00
2019-03-20T13:56:08.241Z,103003.00
2019-03-20T13:58:37.751Z,103000.00
2019-03-20T14:01:07.218Z,103007.00
2019-03-20T14:03:36.666Z,103006.00
2019-03-20T14:06:06.369Z,103004.00
2019-03-20T14:08:35.875Z,103014.00
2019-03-20T14:11:05.570Z,103008.00
2019-03-20T14:13:35.064Z,103010.00
2019-03-20T14:16:04.744Z,103010.00
2019-03-20T14:18:34.286Z,103012.00
2019-03-20T14:21:03.941Z,103012.00
2019-03-20T14:23:33.438Z,103007.00
2019-03-20T14:26:02.974Z,103012.00
2019-03-20T14:28:32.535Z,103010.00
2019-03-20T14:31:02.336Z,103014.00
2019-03-20T14:33:31.790Z,103009.00
2019-03-20T14:36:01.255Z,103011.00
2019-03-20T14:38:30.748Z,103010.00
2019-03-20T14:41:00.238Z,103006.00
2019-03-20T14:43:29.716Z,103010.00
2019-03-20T14:45:59.179Z,103000.00
2019-03-20T14:48:28.712Z,103001.00
2019-03-20T14:50:58.163Z,103005.00
2019-03-20T14:53:27.607Z,103000.00
2019-03-20T14:55:57.072Z,102999.00
2019-03-20T14:58:26.541Z,103005.00
2019-03-20T15:00:56.085Z,102999.00
2019-03-20T15:03:25.570Z,103006.00
2019-03-20T15:05:55.049Z,103005.00
2019-03-20T15:08:24.661Z,102995.00
2019-03-20T15:10:54.214Z,102994.00
2019-03-20T15:13:23.719Z,102999.00
2019-03-20T15:16:03.661Z,102996.00
2019-03-20T15:18:33.201Z,102988.00
2019-03-20T15:21:02.712Z,102976.00
2019-03-20T15:23:32.216Z,102982.00
2019-03-20T15:26:01.772Z,102974.00
2019-03-20T15:28:31.240Z,102972.00
2019-03-20T15:31:00.725Z,102977.00
2019-03-20T15:33:30.203Z,102967.00
2019-03-20T15:35:59.673Z,102969.00
2019-03-20T15:38:29.174Z,102965.00
2019-03-20T15:40:58.653Z,102965.00
2019-03-20T15:43:28.166Z,102965.00
2019-03-20T15:45:57.709Z,102967.00
2019-03-20T15:48:27.224Z,102972.00
2019-03-20T15:50:56.967Z,102971.00
2019-03-20T15:53:26.441Z,102969.00
2019-03-20T15:55:56.004Z,102963.00
2019-03-20T15:58:25.612Z,102968.00
2019-03-20T16:00:55.130Z,102973.00
2019-03-20T16:03:38.276Z,102977.00
2019-03-20T16:06:07.808Z,102981.00
2019-03-20T16:08:37.120Z,102965.00
2019-03-20T16:11:07.139Z,102966.00
2019-03-20T16:13:37.212Z,102969.00
2019-03-20T16:16:06.704Z,102965.00
2019-03-20T16:18:36.267Z,102969.00
2019-03-20T16:21:05.907Z,102967.00
2019-03-20T16:23:35.431Z,102971.00
2019-03-20T16:26:05.148Z,102965.00
2019-03-20T16:28:35.082Z,102969.00
2019-03-20T16:31:04.704Z,102969.00
2019-03-20T16:33:34.199Z,102973.00
2019-03-20T16:36:03.812Z,102969.00
2019-03-20T16:38:33.318Z,102970.00
2019-03-20T16:41:02.809Z,102979.00
2019-03-20T16:43:32.324Z,102980.00
2019-03-20T16:46:01.842Z,102982.00
2019-03-20T16:48:31.332Z,102976.00
2019-03-20T16:51:00.832Z,102974.00
2019-03-20T16:53:30.294Z,102976.00
2019-03-20T16:55:59.746Z,102973.00
2019-03-20T16:58:29.334Z,102977.00
2019-03-20T17:00:58.781Z,102977.00
2019-03-20T17:03:28.280Z,102981.00
2019-03-20T17:05:57.798Z,102981.00
2019-03-20T17:08:27.254Z,102991.00
2019-03-20T17:10:56.866Z,102986.00
2019-03-20T17:13:26.347Z,102990.00
2019-03-20T17:15:55.907Z,102998.00
2019-03-20T17:18:25.460Z,103000.00
2019-03-20T17:20:57.914Z,103008.00
2019-03-20T17:23:26.199Z,103002.00
2019-03-20T17:25:55.752Z,103007.00
2019-03-20T17:28:25.302Z,103004.00
2019-03-20T17:30:54.818Z,103010.00
2019-03-20T17:33:24.449Z,103018.00
2019-03-20T17:35:53.930Z,103021.00
2019-03-20T17:38:23.507Z,103015.00
2019-03-20T17:40:53.061Z,103021.00
2019-03-20T17:43:22.528Z,103013.00
2019-03-20T17:45:52.044Z,103012.00
2019-03-20T17:48:21.620Z,103015.00
2019-03-20T17:50:51.068Z,103015.00
2019-03-20T17:53:20.529Z,103020.00
2019-03-20T17:55:50.059Z,103017.00
2019-03-20T17:58:19.516Z,103014.00
2019-03-20T18:00:50.593Z,103018.00
2019-03-20T18:03:20.095Z,103014.00
2019-03-20T18:05:49.680Z,103009.00
2019-03-20T18:08:19.219Z,103017.00
2019-03-20T18:10:48.834Z,103013.00
2019-03-20T18:13:18.600Z,103009.00
2019-03-20T18:15:48.321Z,103021.00
2019-03-20T18:18:17.983Z,103025.00
2019-03-20T18:20:47.719Z,103036.00
2019-03-20T18:23:17.263Z,103031.00
2019-03-20T18:25:46.979Z,103035.00
2019-03-20T18:28:16.574Z,103038.00
2019-03-20T18:30:46.265Z,103042.00
2019-03-20T18:33:15.815Z,103043.00
2019-03-20T18:35:45.706Z,103040.00
2019-03-20T18:38:15.350Z,103045.00
2019-03-20T18:40:44.794Z,103043.00
2019-03-20T18:43:14.252Z,103045.00
2019-03-20T18:45:43.720Z,103049.00
2019-03-20T18:48:13.411Z,103051.00
2019-03-20T18:50:42.918Z,103051.00
2019-03-20T18:53:12.390Z,103061.00
2019-03-20T18:55:41.981Z,103063.00
2019-03-20T18:58:11.447Z,103062.00
2019-03-20T19:00:40.920Z,103059.00
2019-03-20T19:03:17.741Z,103059.00
2019-03-20T19:05:54.598Z,103059.00
2019-03-20T19:08:24.210Z,103059.00
2019-03-20T19:10:53.802Z,103067.00
2019-03-20T19:13:24.450Z,103068.00
2019-03-20T19:15:54.291Z,103071.00
2019-03-20T19:18:23.798Z,103077.00
2019-03-20T19:20:53.290Z,103071.00
2019-03-20T19:23:22.759Z,103078.00
2019-03-20T19:25:52.207Z,103068.00
2019-03-20T19:28:21.735Z,103079.00
2019-03-20T19:30:51.372Z,103079.00
2019-03-20T19:33:20.993Z,103088.00
2019-03-20T19:35:50.447Z,103081.00
2019-03-20T19:38:19.894Z,103084.00
2019-03-20T19:40:49.368Z,103085.00
2019-03-20T19:43:18.897Z,103083.00
2019-03-20T19:45:48.806Z,103088.00
2019-03-20T19:48:18.268Z,103085.00
2019-03-20T19:50:47.835Z,103079.00
2019-03-20T19:53:17.416Z,103084.00
2019-03-20T19:55:46.946Z,103084.00
2019-03-20T19:58:16.481Z,103087.00
2019-03-20T20:00:46.110Z,103087.00
2019-03-20T20:03:15.664Z,103091.00
2019-03-20T20:05:45.208Z,103087.00
2019-03-20T20:08:14.646Z,103097.00
2019-03-20T20:10:44.200Z,103093.00
2019-03-20T20:13:13.663Z,103094.00
2019-03-20T20:15:43.209Z,103091.00
2019-03-20T20:18:12.728Z,103094.00
2019-03-20T20:20:42.344Z,103099.00
2019-03-20T20:23:11.965Z,103087.00
2019-03-20T20:25:41.657Z,103095.00
2019-03-20T20:28:11.651Z,103090.00
2019-03-20T20:30:41.375Z,103088.00
2019-03-20T20:33:11.056Z,103084.00
2019-03-20T20:35:40.638Z,103084.00
2019-03-20T20:38:10.177Z,103092.00
2019-03-20T20:40:39.758Z,103089.00
2019-03-20T20:43:09.222Z,103091.00
2019-03-20T20:45:38.679Z,103094.00
2019-03-20T20:48:08.186Z,103099.00
2019-03-20T20:50:37.650Z,103100.00
2019-03-20T20:53:07.106Z,103098.00
2019-03-20T20:55:36.629Z,103094.00
2019-03-20T20:58:06.328Z,103092.00
2019-03-20T21:00:35.884Z,103094.00
2019-03-20T21:03:05.414Z,103095.00
2019-03-20T21:05:35.070Z,103099.00
2019-03-20T21:08:04.754Z,103101.00
2019-03-20T21:10:34.345Z,103094.00
2019-03-20T21:13:04.075Z,103093.00
2019-03-20T21:15:40.532Z,103093.00
2019-03-20T21:18:48.811Z,103090.00
2019-03-20T21:21:18.561Z,103087.00
2019-03-20T21:24:27.907Z,103082.00
2019-03-20T21:27:08.145Z,103090.00
2019-03-20T21:30:06.506Z,103089.00
2019-03-20T21:32:46.475Z,103090.00
2019-03-20T21:35:45.421Z,103085.00
2019-03-20T21:38:13.308Z,103088.00
2019-03-20T21:41:02.256Z,103087.00
2019-03-20T21:44:17.132Z,103094.00
2019-03-20T21:47:15.266Z,103099.00
2019-03-20T21:49:44.880Z,103095.00
2019-03-20T21:52:14.432Z,103094.00
2019-03-20T21:55:20.174Z,103100.00
2019-03-20T21:58:06.343Z,103102.00
2019-03-20T22:01:08.734Z,103106.00
2019-03-20T22:03:38.266Z,103107.00
2019-03-20T22:06:27.600Z,103098.00
2019-03-20T22:08:57.098Z,103097.00
2019-03-20T22:11:39.341Z,103100.00
2019-03-20T22:14:15.188Z,103100.00
2019-03-20T22:17:33.276Z,103093.00
2019-03-20T22:20:23.974Z,103103.00
2019-03-20T22:23:15.149Z,103102.00
2019-03-20T22:26:03.857Z,103099.00
2019-03-20T22:29:05.012Z,103098.00
2019-03-20T22:31:39.072Z,103095.00
2019-03-20T22:34:50.727Z,103097.00
2019-03-20T22:37:20.234Z,103098.00
2019-03-20T22:40:16.552Z,103092.00
2019-03-20T22:42:56.523Z,103091.00
2019-03-20T22:46:19.055Z,103095.00
2019-03-20T22:49:29.687Z,103097.00
2019-03-20T22:52:12.543Z,103094.00
2019-03-20T22:55:16.612Z,103091.00
2019-03-20T22:58:13.019Z,103090.00
2019-03-20T23:00:43.459Z,103090.00
2019-03-20T23:03:17.533Z,103091.00
2019-03-20T23:05:47.032Z,103086.00
2019-03-20T23:08:17.113Z,103094.00
2019-03-20T23:10:51.066Z,103096.00
2019-03-20T23:13:20.567Z,103094.00
2019-03-20T23:15:51.334Z,103091.00
2019-03-20T23:18:21.117Z,103086.00
2019-03-20T23:20:50.731Z,103093.00
2019-03-20T23:23:20.239Z,103094.00
2019-03-20T23:25:49.808Z,103103.00
2019-03-20T23:28:19.409Z,103098.00
2019-03-20T23:30:48.848Z,103095.00
2019-03-20T23:33:18.280Z,103095.00
2019-03-20T23:35:47.735Z,103094.00
2019-03-20T23:38:17.160Z,103089.00
2019-03-20T23:40:46.587Z,103089.00
2019-03-20T23:43:16.113Z,103087.00
2019-03-20T23:45:45.535Z,103086.00
2019-03-20T23:48:57.538Z,103076.00
2019-03-20T23:51:30.707Z,103086.00
2019-03-20T23:54:00.554Z,103083.00
2019-03-20T23:56:34.840Z,103090.00
2019-03-20T23:59:05.617Z,103088.00
